createdAt,value
2022-10-09T00:05:15.573Z,18.30
2022-10-09T00:08:21.704Z,18.50
2022-10-09T00:14:33.829Z,17.60
2022-10-09T00:17:39.938Z,17.10
2022-10-09T00:23:53.036Z,19.30
2022-10-09T00:26:59.231Z,20.10
2022-10-09T00:30:06.039Z,20.80
2022-10-09T00:33:12.140Z,18.20
2022-10-09T00:39:23.767Z,16.20
2022-10-09T00:42:30.024Z,16.40
2022-10-09T00:45:36.387Z,16.20
2022-10-09T00:48:42.488Z,16.70
2022-10-09T00:54:56.619Z,15.60
2022-10-09T00:58:03.726Z,16.30
2022-10-09T01:01:09.917Z,16.00
2022-10-09T01:04:16.470Z,15.80
2022-10-09T01:07:30.889Z,16.10
2022-10-09T01:10:43.118Z,16.10
2022-10-09T01:13:59.306Z,15.70
2022-10-09T01:17:15.203Z,17.70
2022-10-09T01:24:10.568Z,17.60
2022-10-09T01:27:20.158Z,16.90
2022-10-09T01:30:26.203Z,16.20
2022-10-09T01:39:45.911Z,13.50
2022-10-09T01:42:52.214Z,13.30
2022-10-09T01:46:25.157Z,12.00
2022-10-09T01:49:49.844Z,12.40
2022-10-09T01:53:00.588Z,13.50
2022-10-09T01:56:14.328Z,12.50
2022-10-09T01:59:21.923Z,12.10
2022-10-09T02:02:29.512Z,11.60
2022-10-09T02:05:36.916Z,11.10
2022-10-09T02:08:45.947Z,10.70
2022-10-09T02:11:56.924Z,10.50
2022-10-09T02:15:03.192Z,10.30
2022-10-09T02:18:15.000Z,10.40
2022-10-09T02:21:30.593Z,7.70
2022-10-09T02:24:39.090Z,7.50
2022-10-09T02:27:45.473Z,7.30
2022-10-09T02:30:58.583Z,6.90
2022-10-09T02:34:07.003Z,6.90
2022-10-09T02:37:13.415Z,7.40
2022-10-09T02:40:19.619Z,6.80
2022-10-09T02:43:25.979Z,6.20
2022-10-09T02:46:32.093Z,4.40
2022-10-09T02:49:38.376Z,4.80
2022-10-09T02:55:49.011Z,3.70
2022-10-09T02:58:55.499Z,3.10
2022-10-09T03:02:01.945Z,3.40
2022-10-09T03:05:09.579Z,3.10
2022-10-09T03:08:16.213Z,2.70
2022-10-09T03:11:24.632Z,2.90
2022-10-09T03:14:30.687Z,2.70
2022-10-09T03:17:36.762Z,2.70
2022-10-09T03:20:42.900Z,3.20
2022-10-09T03:26:53.535Z,3.10
2022-10-09T03:29:59.862Z,3.10
2022-10-09T03:33:06.026Z,3.10
2022-10-09T03:39:17.127Z,3.30
2022-10-09T03:42:23.267Z,2.90
2022-10-09T03:48:33.931Z,3.10
2022-10-09T03:54:44.576Z,3.90
2022-10-09T04:00:56.148Z,3.10
2022-10-09T04:04:02.399Z,2.90
2022-10-09T04:10:13.389Z,3.70
2022-10-09T04:13:19.614Z,3.40
2022-10-09T04:19:30.210Z,4.30
2022-10-09T04:22:36.351Z,4.00
2022-10-09T04:25:42.335Z,4.20
2022-10-09T04:28:48.533Z,3.70
2022-10-09T04:34:59.376Z,4.10
2022-10-09T04:38:05.382Z,3.60
2022-10-09T04:41:11.638Z,3.90
2022-10-09T04:44:17.895Z,4.10
2022-10-09T04:47:24.101Z,4.40
2022-10-09T04:53:35.082Z,3.40
2022-10-09T04:56:41.308Z,3.80
2022-10-09T05:02:52.246Z,3.80
2022-10-09T05:06:04.084Z,3.50
2022-10-09T05:09:10.583Z,3.00
2022-10-09T05:12:17.057Z,3.70
2022-10-09T05:15:23.528Z,3.50
2022-10-09T05:18:29.902Z,3.70
2022-10-09T05:21:37.159Z,3.30
2022-10-09T05:24:43.256Z,3.20
2022-10-09T05:27:49.479Z,3.50
2022-10-09T05:34:01.853Z,3.10
2022-10-09T05:37:08.024Z,3.10
2022-10-09T05:43:18.850Z,3.30
2022-10-09T05:49:30.577Z,3.20
2022-10-09T05:58:50.948Z,3.40
2022-10-09T06:01:57.148Z,3.20
2022-10-09T06:08:07.905Z,3.40
2022-10-09T06:11:16.179Z,3.60
2022-10-09T06:14:23.220Z,3.30
2022-10-09T06:17:29.351Z,3.60
2022-10-09T06:23:40.379Z,3.70
2022-10-09T06:26:46.691Z,3.90
2022-10-09T06:29:53.480Z,3.80
2022-10-09T06:32:59.627Z,3.90
2022-10-09T06:39:17.040Z,4.60
2022-10-09T06:42:23.073Z,4.10
2022-10-09T06:45:29.342Z,4.00
2022-10-09T06:48:36.760Z,4.40
2022-10-09T06:51:42.902Z,5.20
2022-10-09T06:57:53.583Z,5.00
2022-10-09T07:04:14.554Z,4.30
2022-10-09T07:07:20.837Z,4.00
2022-10-09T07:13:32.455Z,4.60
2022-10-09T07:16:40.251Z,3.90
2022-10-09T07:19:46.348Z,4.20
2022-10-09T07:22:52.499Z,4.40
2022-10-09T07:29:03.202Z,3.90
2022-10-09T07:35:17.182Z,4.00
2022-10-09T07:38:24.554Z,4.60
2022-10-09T07:41:31.784Z,5.10
2022-10-09T07:44:38.226Z,4.80
2022-10-09T07:47:44.396Z,6.20
2022-10-09T07:53:56.520Z,5.20
2022-10-09T07:57:02.766Z,16.80
2022-10-09T08:00:11.259Z,11.10
2022-10-09T08:03:17.456Z,4.30
2022-10-09T08:09:28.546Z,5.50
2022-10-09T08:12:34.731Z,17.30
2022-10-09T08:18:49.635Z,4.20
2022-10-09T08:21:57.341Z,3.60
2022-10-09T08:25:07.312Z,3.80
2022-10-09T08:28:13.433Z,4.80
2022-10-09T08:34:25.163Z,4.00
2022-10-09T08:40:46.606Z,3.50
2022-10-09T08:43:58.436Z,3.50
2022-10-09T08:47:10.401Z,3.50
2022-10-09T08:50:23.003Z,3.50
2022-10-09T08:53:37.350Z,4.00
2022-10-09T08:56:43.643Z,4.10
2022-10-09T08:59:50.196Z,3.40
2022-10-09T09:03:19.078Z,3.30
2022-10-09T09:06:38.600Z,3.50
2022-10-09T09:09:53.743Z,5.90
2022-10-09T09:13:07.897Z,3.90
2022-10-09T09:16:23.802Z,3.80
2022-10-09T09:22:49.746Z,4.20
2022-10-09T09:25:56.457Z,3.10
2022-10-09T09:29:06.264Z,2.60
2022-10-09T09:32:20.636Z,3.30
2022-10-09T09:35:35.999Z,2.90
2022-10-09T09:39:03.225Z,2.70
2022-10-09T09:42:16.817Z,2.60
2022-10-09T09:45:25.311Z,3.00
2022-10-09T09:48:36.795Z,3.50
2022-10-09T09:51:43.302Z,3.00
2022-10-09T09:54:50.832Z,4.50
2022-10-09T09:58:03.796Z,5.60
2022-10-09T10:01:21.119Z,9.90
2022-10-09T10:04:29.357Z,3.40
2022-10-09T10:07:37.097Z,2.90
2022-10-09T10:10:48.107Z,2.70
2022-10-09T10:13:54.380Z,3.50
2022-10-09T10:17:02.512Z,7.10
2022-10-09T10:20:12.538Z,3.30
2022-10-09T10:23:37.027Z,2.90
2022-10-09T10:26:48.786Z,2.70
2022-10-09T10:29:59.641Z,2.80
2022-10-09T10:33:14.483Z,2.90
2022-10-09T10:36:20.773Z,2.70
2022-10-09T10:39:37.235Z,3.30
2022-10-09T10:42:56.076Z,12.80
2022-10-09T10:46:13.595Z,7.50
2022-10-09T10:49:23.380Z,2.80
2022-10-09T10:52:46.035Z,2.80
2022-10-09T10:55:59.224Z,3.00
2022-10-09T10:59:29.296Z,3.10
2022-10-09T11:02:57.822Z,2.60
2022-10-09T11:06:12.687Z,2.60
2022-10-09T11:09:26.067Z,2.70
2022-10-09T11:12:48.211Z,3.20
2022-10-09T11:16:07.531Z,3.00
2022-10-09T11:19:45.402Z,3.00
2022-10-09T11:23:10.800Z,3.80
2022-10-09T11:26:27.323Z,4.00
2022-10-09T11:29:38.615Z,4.10
2022-10-09T11:32:55.818Z,4.00
2022-10-09T11:36:06.996Z,7.40
2022-10-09T11:39:18.317Z,3.80
2022-10-09T11:42:26.393Z,3.60
2022-10-09T11:45:42.987Z,3.90
2022-10-09T11:48:55.515Z,2.70
2022-10-09T11:52:09.658Z,3.30
2022-10-09T11:55:25.083Z,2.70
2022-10-09T11:58:31.300Z,2.40
2022-10-09T12:01:40.045Z,1.90
2022-10-09T12:04:54.856Z,2.20
2022-10-09T12:08:15.413Z,2.50
2022-10-09T12:11:25.632Z,3.00
2022-10-09T12:14:32.536Z,1.90
2022-10-09T12:17:47.788Z,1.90
2022-10-09T12:20:57.022Z,1.50
2022-10-09T12:24:03.796Z,1.20
2022-10-09T12:27:18.798Z,1.70
2022-10-09T12:30:27.129Z,3.30
2022-10-09T12:33:39.830Z,3.50
2022-10-09T12:36:45.988Z,5.40
2022-10-09T12:39:52.724Z,3.30
2022-10-09T12:43:01.842Z,2.10
2022-10-09T12:46:08.110Z,2.10
2022-10-09T12:49:22.804Z,5.60
2022-10-09T12:52:29.412Z,2.50
2022-10-09T12:55:37.607Z,6.20
2022-10-09T12:58:44.688Z,7.10
2022-10-09T13:01:52.482Z,2.90
2022-10-09T13:05:02.277Z,2.60
2022-10-09T13:08:22.462Z,1.90
2022-10-09T13:11:34.449Z,2.10
2022-10-09T13:14:46.602Z,2.10
2022-10-09T13:17:52.777Z,1.80
2022-10-09T13:21:07.655Z,11.10
2022-10-09T13:24:14.479Z,11.20
2022-10-09T13:27:21.339Z,4.80
2022-10-09T13:30:28.469Z,8.00
2022-10-09T13:33:34.803Z,9.60
2022-10-09T13:36:40.981Z,7.20
2022-10-09T13:39:47.267Z,8.40
2022-10-09T13:42:56.984Z,3.80
2022-10-09T13:46:03.053Z,2.70
2022-10-09T13:49:09.187Z,2.70
2022-10-09T13:52:15.323Z,1.60
2022-10-09T13:55:21.685Z,2.10
2022-10-09T13:58:27.886Z,2.00
2022-10-09T14:01:34.048Z,2.70
2022-10-09T14:04:40.181Z,2.30
2022-10-09T14:07:46.363Z,1.80
2022-10-09T14:10:52.467Z,2.20
2022-10-09T14:13:59.625Z,1.80
2022-10-09T14:17:05.842Z,1.60
2022-10-09T14:20:12.786Z,1.80
2022-10-09T14:23:19.026Z,2.30
2022-10-09T14:26:25.917Z,2.10
2022-10-09T14:29:32.075Z,1.80
2022-10-09T14:32:38.139Z,1.80
2022-10-09T14:38:49.881Z,1.70
2022-10-09T14:41:55.984Z,1.90
2022-10-09T14:48:07.060Z,1.80
2022-10-09T14:51:15.167Z,2.60
2022-10-09T14:54:21.510Z,4.40
2022-10-09T14:57:30.233Z,5.70
2022-10-09T15:00:39.035Z,2.40
2022-10-09T15:06:50.103Z,1.90
2022-10-09T15:09:57.040Z,2.00
2022-10-09T15:13:03.203Z,2.00
2022-10-09T15:19:14.999Z,2.20
2022-10-09T15:22:20.978Z,2.50
2022-10-09T15:25:31.558Z,3.90
2022-10-09T15:28:38.499Z,3.00
2022-10-09T15:31:44.897Z,2.80
2022-10-09T15:34:51.132Z,2.80
2022-10-09T15:37:57.213Z,2.80
2022-10-09T15:44:09.792Z,2.30
2022-10-09T15:47:16.525Z,2.50
2022-10-09T15:50:23.006Z,2.60
2022-10-09T15:56:38.757Z,2.10
2022-10-09T15:59:46.174Z,2.00
2022-10-09T16:02:52.580Z,2.50
2022-10-09T16:06:02.820Z,2.20
2022-10-09T16:09:09.051Z,2.40
2022-10-09T16:12:15.471Z,2.40
2022-10-09T16:15:21.622Z,2.80
2022-10-09T16:21:33.264Z,2.30
2022-10-09T16:24:39.483Z,5.20
2022-10-09T16:30:50.084Z,5.20
2022-10-09T16:37:02.397Z,2.70
2022-10-09T16:40:10.290Z,2.90
2022-10-09T16:43:17.019Z,2.50
2022-10-09T16:46:25.214Z,3.00
2022-10-09T16:49:31.448Z,3.20
2022-10-09T16:55:42.138Z,7.30
2022-10-09T17:01:53.388Z,19.00
2022-10-09T17:04:59.591Z,7.00
2022-10-09T17:11:13.115Z,4.40
2022-10-09T17:14:19.266Z,5.00
2022-10-09T17:20:30.031Z,34.20
2022-10-09T17:26:40.599Z,23.20
2022-10-09T17:29:46.688Z,10.10
2022-10-09T17:32:53.097Z,20.70
2022-10-09T17:46:58.032Z,6.00
2022-10-09T17:53:09.040Z,64.80
2022-10-09T17:59:19.809Z,60.60
2022-10-09T18:05:30.573Z,11.00
2022-10-09T18:08:37.006Z,6.70
2022-10-09T18:11:43.170Z,3.90
2022-10-09T18:17:53.814Z,14.40
2022-10-09T18:21:06.092Z,8.00
2022-10-09T18:24:12.376Z,4.50
2022-10-09T18:27:18.603Z,4.70
2022-10-09T18:33:29.397Z,41.60
2022-10-09T18:39:41.207Z,19.70
2022-10-09T18:42:47.606Z,14.90
2022-10-09T18:45:54.761Z,7.00
2022-10-09T18:49:01.124Z,5.50
2022-10-09T18:52:10.630Z,5.40
2022-10-09T18:55:20.116Z,8.80
2022-10-09T18:58:27.098Z,7.50
2022-10-09T19:01:33.280Z,6.90
2022-10-09T19:07:43.905Z,14.90
2022-10-09T19:10:54.098Z,10.10
2022-10-09T19:14:00.972Z,7.10
2022-10-09T19:17:08.060Z,14.00
2022-10-09T19:20:14.665Z,26.10
2022-10-09T19:23:20.897Z,19.70
2022-10-09T19:29:31.278Z,12.40
2022-10-09T19:32:37.209Z,9.40
2022-10-09T19:35:50.230Z,9.70
2022-10-09T19:38:56.253Z,8.20
2022-10-09T19:42:02.373Z,10.80
2022-10-09T19:45:10.473Z,20.80
2022-10-09T19:48:16.989Z,10.40
2022-10-09T19:51:25.044Z,9.10
2022-10-09T19:54:32.173Z,11.70
2022-10-09T19:57:38.431Z,10.10
2022-10-09T20:00:46.946Z,14.50
2022-10-09T20:03:57.137Z,16.60
2022-10-09T20:07:03.179Z,16.60
2022-10-09T20:10:10.528Z,10.90
2022-10-09T20:13:16.823Z,11.20
2022-10-09T20:19:30.994Z,8.00
2022-10-09T20:22:37.120Z,10.20
2022-10-09T20:25:43.218Z,10.90
2022-10-09T20:28:50.349Z,9.50
2022-10-09T20:31:56.584Z,8.30
2022-10-09T20:35:02.719Z,8.70
2022-10-09T20:38:08.725Z,11.90
2022-10-09T20:41:14.962Z,14.70
2022-10-09T20:47:25.493Z,9.60
2022-10-09T20:53:36.034Z,8.90
2022-10-09T20:59:47.061Z,9.80
2022-10-09T21:02:53.126Z,9.20
2022-10-09T21:05:59.352Z,8.50
2022-10-09T21:09:05.970Z,8.10
2022-10-09T21:12:12.241Z,7.90
2022-10-09T21:15:18.547Z,7.80
2022-10-09T21:21:30.352Z,8.00
2022-10-09T21:24:36.449Z,7.80
2022-10-09T21:27:42.579Z,8.70
2022-10-09T21:30:48.640Z,8.10
2022-10-09T21:33:55.350Z,8.60
2022-10-09T21:37:20.289Z,8.50
2022-10-09T21:43:31.938Z,8.70
2022-10-09T21:46:41.559Z,8.40
2022-10-09T21:49:47.885Z,7.70
2022-10-09T21:55:58.867Z,9.40
2022-10-09T21:59:05.127Z,8.40
2022-10-09T22:05:15.788Z,8.30
2022-10-09T22:08:22.145Z,9.30
2022-10-09T22:14:33.029Z,14.30
2022-10-09T22:20:45.376Z,14.90
2022-10-09T22:23:51.577Z,11.40
2022-10-09T22:26:57.567Z,10.20
2022-10-09T22:30:04.007Z,9.60
2022-10-09T22:36:16.270Z,9.10
2022-10-09T22:39:22.396Z,7.70
2022-10-09T22:42:28.531Z,8.50
2022-10-09T22:45:37.690Z,7.90
2022-10-09T22:48:44.936Z,7.90
2022-10-09T22:51:51.061Z,8.60
2022-10-09T22:54:57.255Z,8.60
2022-10-09T22:58:03.295Z,7.70
2022-10-09T23:01:12.421Z,7.30
2022-10-09T23:04:20.454Z,8.60
2022-10-09T23:07:26.577Z,8.70
2022-10-09T23:10:32.801Z,8.30
2022-10-09T23:16:43.828Z,8.80
2022-10-09T23:22:55.184Z,8.50
2022-10-09T23:26:04.369Z,8.00
2022-10-09T23:29:15.657Z,7.40
2022-10-09T23:32:21.538Z,7.70
2022-10-09T23:35:27.691Z,7.80
2022-10-09T23:38:34.484Z,8.10
2022-10-09T23:41:41.126Z,7.40
2022-10-09T23:44:47.189Z,7.90
2022-10-09T23:47:53.095Z,7.10
2022-10-09T23:50:59.931Z,7.70
2022-10-09T23:54:07.248Z,7.70
2022-10-09T23:57:13.350Z,7.00
